sensor_id;sensor_type;location;lat;lon;timestamp;P1;durP1;ratioP1;P2;durP2;ratioP2
39994;SDS011;25686;51.908;10.418;2023-06-22T00:00:51;12.55;;;8.25;;
39994;SDS011;25686;51.908;10.418;2023-06-22T00:02:53;13.27;;;8.57;;
39994;SDS011;25686;51.908;10.418;2023-06-22T00:04:54;13.18;;;8.65;;
39994;SDS011;25686;51.908;10.418;2023-06-22T00:06:55;9.35;;;7.75;;
39994;SDS011;25686;51.908;10.418;2023-06-22T00:08:55;10.98;;;8.68;;
39994;SDS011;25686;51.908;10.418;2023-06-22T00:10:56;11.05;;;8.25;;
39994;SDS011;25686;51.908;10.418;2023-06-22T00:12:57;10.10;;;8.23;;
39994;SDS011;25686;51.908;10.418;2023-06-22T00:14:58;11.07;;;8.77;;
39994;SDS011;25686;51.908;10.418;2023-06-22T00:16:59;12.38;;;9.10;;
39994;SDS011;25686;51.908;10.418;2023-06-22T00:19:00;11.52;;;8.55;;
39994;SDS011;25686;51.908;10.418;2023-06-22T00:21:02;12.73;;;8.57;;
39994;SDS011;25686;51.908;10.418;2023-06-22T00:23:05;11.88;;;8.63;;
39994;SDS011;25686;51.908;10.418;2023-06-22T00:25:08;12.52;;;8.55;;
39994;SDS011;25686;51.908;10.418;2023-06-22T00:27:09;11.68;;;9.13;;
39994;SDS011;25686;51.908;10.418;2023-06-22T00:29:10;10.93;;;8.52;;
39994;SDS011;25686;51.908;10.418;2023-06-22T00:31:11;12.68;;;9.13;;
39994;SDS011;25686;51.908;10.418;2023-06-22T00:33:12;13.40;;;8.70;;
39994;SDS011;25686;51.908;10.418;2023-06-22T00:35:13;10.82;;;9.02;;
39994;SDS011;25686;51.908;10.418;2023-06-22T00:37:14;11.48;;;8.80;;
39994;SDS011;25686;51.908;10.418;2023-06-22T00:39:15;10.75;;;8.82;;
39994;SDS011;25686;51.908;10.418;2023-06-22T00:41:17;11.45;;;9.48;;
39994;SDS011;25686;51.908;10.418;2023-06-22T00:43:18;10.00;;;8.63;;
39994;SDS011;25686;51.908;10.418;2023-06-22T00:45:19;14.10;;;9.10;;
39994;SDS011;25686;51.908;10.418;2023-06-22T00:47:20;12.45;;;8.65;;
39994;SDS011;25686;51.908;10.418;2023-06-22T00:49:22;10.20;;;8.90;;
39994;SDS011;25686;51.908;10.418;2023-06-22T00:51:23;10.32;;;8.68;;
39994;SDS011;25686;51.908;10.418;2023-06-22T00:53:24;10.98;;;9.02;;
39994;SDS011;25686;51.908;10.418;2023-06-22T00:55:25;11.25;;;8.52;;
39994;SDS011;25686;51.908;10.418;2023-06-22T00:57:26;10.70;;;8.63;;
39994;SDS011;25686;51.908;10.418;2023-06-22T00:59:28;9.70;;;8.77;;
39994;SDS011;25686;51.908;10.418;2023-06-22T01:01:29;12.50;;;8.88;;
39994;SDS011;25686;51.908;10.418;2023-06-22T01:03:30;14.40;;;9.27;;
39994;SDS011;25686;51.908;10.418;2023-06-22T01:05:30;12.27;;;8.70;;
39994;SDS011;25686;51.908;10.418;2023-06-22T01:07:35;13.57;;;9.02;;
39994;SDS011;25686;51.908;10.418;2023-06-22T01:09:43;11.98;;;9.18;;
39994;SDS011;25686;51.908;10.418;2023-06-22T01:11:47;12.57;;;9.43;;
39994;SDS011;25686;51.908;10.418;2023-06-22T01:16:17;12.70;;;9.00;;
39994;SDS011;25686;51.908;10.418;2023-06-22T01:18:20;14.02;;;9.27;;
39994;SDS011;25686;51.908;10.418;2023-06-22T01:20:25;10.50;;;8.98;;
39994;SDS011;25686;51.908;10.418;2023-06-22T01:22:29;9.95;;;8.27;;
39994;SDS011;25686;51.908;10.418;2023-06-22T01:24:41;10.88;;;9.10;;
39994;SDS011;25686;51.908;10.418;2023-06-22T01:29:05;13.13;;;9.02;;
39994;SDS011;25686;51.908;10.418;2023-06-22T01:31:08;15.27;;;9.02;;
39994;SDS011;25686;51.908;10.418;2023-06-22T01:33:10;11.32;;;9.10;;
39994;SDS011;25686;51.908;10.418;2023-06-22T01:35:12;14.95;;;9.40;;
39994;SDS011;25686;51.908;10.418;2023-06-22T01:37:13;12.82;;;9.45;;
39994;SDS011;25686;51.908;10.418;2023-06-22T01:39:15;13.02;;;9.15;;
39994;SDS011;25686;51.908;10.418;2023-06-22T01:41:17;10.32;;;9.05;;
39994;SDS011;25686;51.908;10.418;2023-06-22T01:43:18;13.02;;;9.32;;
39994;SDS011;25686;51.908;10.418;2023-06-22T01:45:20;11.63;;;8.90;;
39994;SDS011;25686;51.908;10.418;2023-06-22T01:47:24;11.30;;;8.77;;
39994;SDS011;25686;51.908;10.418;2023-06-22T01:49:25;16.35;;;9.43;;
39994;SDS011;25686;51.908;10.418;2023-06-22T01:51:26;12.70;;;9.18;;
39994;SDS011;25686;51.908;10.418;2023-06-22T01:53:27;9.93;;;8.82;;
39994;SDS011;25686;51.908;10.418;2023-06-22T01:55:28;11.70;;;9.35;;
39994;SDS011;25686;51.908;10.418;2023-06-22T01:57:29;13.38;;;9.50;;
39994;SDS011;25686;51.908;10.418;2023-06-22T01:59:34;12.77;;;9.15;;
39994;SDS011;25686;51.908;10.418;2023-06-22T02:01:43;11.48;;;8.93;;
39994;SDS011;25686;51.908;10.418;2023-06-22T02:03:47;11.63;;;9.27;;
39994;SDS011;25686;51.908;10.418;2023-06-22T02:05:50;13.07;;;9.73;;
39994;SDS011;25686;51.908;10.418;2023-06-22T02:07:56;11.50;;;9.30;;
39994;SDS011;25686;51.908;10.418;2023-06-22T02:09:59;11.38;;;9.20;;
39994;SDS011;25686;51.908;10.418;2023-06-22T02:12:02;9.98;;;8.98;;
39994;SDS011;25686;51.908;10.418;2023-06-22T02:14:05;15.40;;;9.65;;
39994;SDS011;25686;51.908;10.418;2023-06-22T02:16:06;11.07;;;9.27;;
39994;SDS011;25686;51.908;10.418;2023-06-22T02:18:07;12.80;;;9.40;;
39994;SDS011;25686;51.908;10.418;2023-06-22T02:20:11;11.50;;;9.20;;
39994;SDS011;25686;51.908;10.418;2023-06-22T02:22:13;12.43;;;9.23;;
39994;SDS011;25686;51.908;10.418;2023-06-22T02:24:14;10.55;;;9.40;;
39994;SDS011;25686;51.908;10.418;2023-06-22T02:26:16;13.40;;;9.93;;
39994;SDS011;25686;51.908;10.418;2023-06-22T02:28:17;11.77;;;9.90;;
39994;SDS011;25686;51.908;10.418;2023-06-22T02:30:18;11.35;;;9.20;;
39994;SDS011;25686;51.908;10.418;2023-06-22T02:32:19;10.90;;;9.23;;
39994;SDS011;25686;51.908;10.418;2023-06-22T02:34:21;11.52;;;9.55;;
39994;SDS011;25686;51.908;10.418;2023-06-22T02:36:22;14.73;;;9.57;;
39994;SDS011;25686;51.908;10.418;2023-06-22T02:38:23;15.02;;;9.13;;
39994;SDS011;25686;51.908;10.418;2023-06-22T02:40:24;11.38;;;9.48;;
39994;SDS011;25686;51.908;10.418;2023-06-22T02:42:25;17.25;;;10.23;;
39994;SDS011;25686;51.908;10.418;2023-06-22T02:44:26;17.40;;;9.68;;
39994;SDS011;25686;51.908;10.418;2023-06-22T02:46:27;10.90;;;9.38;;
39994;SDS011;25686;51.908;10.418;2023-06-22T02:48:28;12.23;;;9.63;;
39994;SDS011;25686;51.908;10.418;2023-06-22T02:50:29;10.65;;;9.38;;
39994;SDS011;25686;51.908;10.418;2023-06-22T02:52:30;10.65;;;9.55;;
39994;SDS011;25686;51.908;10.418;2023-06-22T02:54:31;10.10;;;9.10;;
39994;SDS011;25686;51.908;10.418;2023-06-22T02:56:33;10.23;;;9.18;;
39994;SDS011;25686;51.908;10.418;2023-06-22T02:58:36;12.00;;;9.55;;
39994;SDS011;25686;51.908;10.418;2023-06-22T03:00:38;11.15;;;9.10;;
39994;SDS011;25686;51.908;10.418;2023-06-22T03:02:39;15.98;;;9.15;;
39994;SDS011;25686;51.908;10.418;2023-06-22T03:04:40;11.40;;;9.32;;
39994;SDS011;25686;51.908;10.418;2023-06-22T03:06:41;11.90;;;9.20;;
39994;SDS011;25686;51.908;10.418;2023-06-22T03:08:42;14.60;;;10.05;;
39994;SDS011;25686;51.908;10.418;2023-06-22T03:10:43;10.50;;;9.40;;
39994;SDS011;25686;51.908;10.418;2023-06-22T03:12:44;12.20;;;9.40;;
39994;SDS011;25686;51.908;10.418;2023-06-22T03:14:45;14.00;;;9.70;;
39994;SDS011;25686;51.908;10.418;2023-06-22T03:16:46;13.77;;;9.40;;
39994;SDS011;25686;51.908;10.418;2023-06-22T03:18:47;12.70;;;9.82;;
39994;SDS011;25686;51.908;10.418;2023-06-22T03:20:48;11.75;;;9.80;;
39994;SDS011;25686;51.908;10.418;2023-06-22T03:22:49;13.45;;;9.38;;
39994;SDS011;25686;51.908;10.418;2023-06-22T03:24:50;13.88;;;8.93;;
39994;SDS011;25686;51.908;10.418;2023-06-22T03:26:51;10.57;;;9.07;;
39994;SDS011;25686;51.908;10.418;2023-06-22T03:28:52;15.70;;;9.48;;
39994;SDS011;25686;51.908;10.418;2023-06-22T03:30:53;12.10;;;9.18;;
39994;SDS011;25686;51.908;10.418;2023-06-22T03:32:54;12.45;;;9.57;;
39994;SDS011;25686;51.908;10.418;2023-06-22T03:34:55;10.73;;;9.48;;
39994;SDS011;25686;51.908;10.418;2023-06-22T03:36:58;12.73;;;9.65;;
39994;SDS011;25686;51.908;10.418;2023-06-22T03:38:59;12.55;;;8.80;;
39994;SDS011;25686;51.908;10.418;2023-06-22T03:41:00;11.80;;;9.05;;
39994;SDS011;25686;51.908;10.418;2023-06-22T03:43:01;10.93;;;9.77;;
39994;SDS011;25686;51.908;10.418;2023-06-22T03:45:02;10.95;;;9.25;;
39994;SDS011;25686;51.908;10.418;2023-06-22T03:47:04;12.02;;;9.75;;
39994;SDS011;25686;51.908;10.418;2023-06-22T03:49:07;13.98;;;9.85;;
39994;SDS011;25686;51.908;10.418;2023-06-22T03:51:08;10.57;;;9.30;;
39994;SDS011;25686;51.908;10.418;2023-06-22T03:53:09;12.43;;;10.02;;
39994;SDS011;25686;51.908;10.418;2023-06-22T03:55:10;11.52;;;9.77;;
39994;SDS011;25686;51.908;10.418;2023-06-22T03:57:11;12.70;;;10.35;;
39994;SDS011;25686;51.908;10.418;2023-06-22T03:59:13;13.07;;;10.15;;
39994;SDS011;25686;51.908;10.418;2023-06-22T04:01:14;13.23;;;9.40;;
39994;SDS011;25686;51.908;10.418;2023-06-22T04:03:17;13.02;;;10.55;;
39994;SDS011;25686;51.908;10.418;2023-06-22T04:05:20;12.05;;;10.70;;
39994;SDS011;25686;51.908;10.418;2023-06-22T04:07:21;12.55;;;10.10;;
39994;SDS011;25686;51.908;10.418;2023-06-22T04:09:23;11.88;;;10.52;;
39994;SDS011;25686;51.908;10.418;2023-06-22T04:11:24;14.98;;;10.95;;
39994;SDS011;25686;51.908;10.418;2023-06-22T04:13:25;12.23;;;10.48;;
39994;SDS011;25686;51.908;10.418;2023-06-22T04:15:26;10.95;;;9.75;;
39994;SDS011;25686;51.908;10.418;2023-06-22T04:17:27;13.98;;;11.23;;
39994;SDS011;25686;51.908;10.418;2023-06-22T04:19:28;11.48;;;10.27;;
39994;SDS011;25686;51.908;10.418;2023-06-22T04:21:29;11.73;;;9.63;;
39994;SDS011;25686;51.908;10.418;2023-06-22T04:23:30;11.57;;;9.70;;
39994;SDS011;25686;51.908;10.418;2023-06-22T04:25:31;12.15;;;9.07;;
39994;SDS011;25686;51.908;10.418;2023-06-22T04:27:32;11.60;;;10.02;;
39994;SDS011;25686;51.908;10.418;2023-06-22T04:29:36;12.85;;;9.95;;
39994;SDS011;25686;51.908;10.418;2023-06-22T04:31:38;11.80;;;9.27;;
39994;SDS011;25686;51.908;10.418;2023-06-22T04:33:39;16.58;;;9.68;;
39994;SDS011;25686;51.908;10.418;2023-06-22T04:35:40;13.80;;;9.55;;
39994;SDS011;25686;51.908;10.418;2023-06-22T04:37:41;11.95;;;9.98;;
39994;SDS011;25686;51.908;10.418;2023-06-22T04:39:43;13.48;;;9.77;;
39994;SDS011;25686;51.908;10.418;2023-06-22T04:41:44;11.82;;;10.57;;
39994;SDS011;25686;51.908;10.418;2023-06-22T04:43:45;12.32;;;10.25;;
39994;SDS011;25686;51.908;10.418;2023-06-22T04:45:54;13.85;;;10.75;;
39994;SDS011;25686;51.908;10.418;2023-06-22T04:47:55;13.45;;;10.65;;
39994;SDS011;25686;51.908;10.418;2023-06-22T04:49:55;13.50;;;9.98;;
39994;SDS011;25686;51.908;10.418;2023-06-22T04:51:56;11.48;;;9.50;;
39994;SDS011;25686;51.908;10.418;2023-06-22T04:53:57;12.55;;;9.35;;
39994;SDS011;25686;51.908;10.418;2023-06-22T04:56:00;13.48;;;10.15;;
39994;SDS011;25686;51.908;10.418;2023-06-22T04:58:04;12.18;;;10.00;;
39994;SDS011;25686;51.908;10.418;2023-06-22T05:00:05;12.05;;;10.05;;
39994;SDS011;25686;51.908;10.418;2023-06-22T05:02:12;12.80;;;10.25;;
39994;SDS011;25686;51.908;10.418;2023-06-22T05:04:13;11.65;;;10.20;;
39994;SDS011;25686;51.908;10.418;2023-06-22T05:06:15;11.85;;;9.43;;
39994;SDS011;25686;51.908;10.418;2023-06-22T05:08:16;13.60;;;9.50;;
39994;SDS011;25686;51.908;10.418;2023-06-22T05:10:17;13.82;;;9.95;;
39994;SDS011;25686;51.908;10.418;2023-06-22T05:12:19;12.80;;;10.32;;
39994;SDS011;25686;51.908;10.418;2023-06-22T05:14:20;14.30;;;10.50;;
39994;SDS011;25686;51.908;10.418;2023-06-22T05:16:21;13.65;;;11.10;;
39994;SDS011;25686;51.908;10.418;2023-06-22T05:18:24;16.35;;;10.90;;
39994;SDS011;25686;51.908;10.418;2023-06-22T05:20:25;12.02;;;10.23;;
39994;SDS011;25686;51.908;10.418;2023-06-22T05:22:26;13.27;;;10.70;;
39994;SDS011;25686;51.908;10.418;2023-06-22T05:24:26;14.27;;;10.85;;
39994;SDS011;25686;51.908;10.418;2023-06-22T05:26:31;16.95;;;11.45;;
39994;SDS011;25686;51.908;10.418;2023-06-22T05:28:32;17.40;;;11.20;;
39994;SDS011;25686;51.908;10.418;2023-06-22T05:30:33;14.85;;;10.43;;
39994;SDS011;25686;51.908;10.418;2023-06-22T05:32:35;12.30;;;10.52;;
39994;SDS011;25686;51.908;10.418;2023-06-22T05:34:36;11.30;;;9.85;;
39994;SDS011;25686;51.908;10.418;2023-06-22T05:36:38;11.90;;;10.55;;
39994;SDS011;25686;51.908;10.418;2023-06-22T05:38:39;11.77;;;10.57;;
39994;SDS011;25686;51.908;10.418;2023-06-22T05:40:40;12.75;;;10.27;;
39994;SDS011;25686;51.908;10.418;2023-06-22T05:42:41;11.95;;;10.60;;
39994;SDS011;25686;51.908;10.418;2023-06-22T05:44:42;14.48;;;10.23;;
39994;SDS011;25686;51.908;10.418;2023-06-22T05:46:43;13.45;;;10.55;;
39994;SDS011;25686;51.908;10.418;2023-06-22T05:48:44;12.55;;;10.50;;
39994;SDS011;25686;51.908;10.418;2023-06-22T05:50:45;11.52;;;10.18;;
39994;SDS011;25686;51.908;10.418;2023-06-22T05:52:46;11.38;;;9.90;;
39994;SDS011;25686;51.908;10.418;2023-06-22T05:54:47;11.27;;;9.93;;
39994;SDS011;25686;51.908;10.418;2023-06-22T05:56:48;11.43;;;10.23;;
39994;SDS011;25686;51.908;10.418;2023-06-22T05:58:49;15.95;;;10.85;;
39994;SDS011;25686;51.908;10.418;2023-06-22T06:00:50;13.27;;;9.80;;
39994;SDS011;25686;51.908;10.418;2023-06-22T06:02:51;14.68;;;10.38;;
39994;SDS011;25686;51.908;10.418;2023-06-22T06:04:52;13.95;;;10.82;;
39994;SDS011;25686;51.908;10.418;2023-06-22T06:06:54;15.45;;;11.05;;
39994;SDS011;25686;51.908;10.418;2023-06-22T06:08:55;12.52;;;10.55;;
39994;SDS011;25686;51.908;10.418;2023-06-22T06:10:56;15.45;;;9.98;;
39994;SDS011;25686;51.908;10.418;2023-06-22T06:12:57;14.77;;;10.73;;
39994;SDS011;25686;51.908;10.418;2023-06-22T06:14:58;11.90;;;10.35;;
39994;SDS011;25686;51.908;10.418;2023-06-22T06:16:59;18.25;;;11.35;;
39994;SDS011;25686;51.908;10.418;2023-06-22T06:19:00;13.15;;;10.70;;
39994;SDS011;25686;51.908;10.418;2023-06-22T06:21:01;14.32;;;11.75;;
39994;SDS011;25686;51.908;10.418;2023-06-22T06:23:02;13.38;;;11.38;;
39994;SDS011;25686;51.908;10.418;2023-06-22T06:25:03;13.73;;;10.35;;
39994;SDS011;25686;51.908;10.418;2023-06-22T06:27:04;14.93;;;10.75;;
39994;SDS011;25686;51.908;10.418;2023-06-22T06:29:05;15.48;;;10.98;;
39994;SDS011;25686;51.908;10.418;2023-06-22T06:31:07;12.85;;;11.13;;
39994;SDS011;25686;51.908;10.418;2023-06-22T06:33:08;15.95;;;11.90;;
39994;SDS011;25686;51.908;10.418;2023-06-22T06:35:09;13.45;;;11.02;;
39994;SDS011;25686;51.908;10.418;2023-06-22T06:37:11;19.02;;;12.15;;
39994;SDS011;25686;51.908;10.418;2023-06-22T06:39:11;16.38;;;12.50;;
39994;SDS011;25686;51.908;10.418;2023-06-22T06:41:13;23.77;;;12.32;;
39994;SDS011;25686;51.908;10.418;2023-06-22T06:43:14;16.45;;;11.38;;
39994;SDS011;25686;51.908;10.418;2023-06-22T06:45:16;14.02;;;11.43;;
39994;SDS011;25686;51.908;10.418;2023-06-22T06:47:17;21.83;;;11.25;;
39994;SDS011;25686;51.908;10.418;2023-06-22T06:49:18;18.27;;;12.88;;
39994;SDS011;25686;51.908;10.418;2023-06-22T06:51:19;16.65;;;12.23;;
39994;SDS011;25686;51.908;10.418;2023-06-22T06:53:20;16.50;;;12.40;;
39994;SDS011;25686;51.908;10.418;2023-06-22T06:55:21;17.25;;;13.00;;
39994;SDS011;25686;51.908;10.418;2023-06-22T06:57:25;16.35;;;12.75;;
39994;SDS011;25686;51.908;10.418;2023-06-22T06:59:30;15.82;;;12.00;;
39994;SDS011;25686;51.908;10.418;2023-06-22T07:01:31;15.55;;;12.50;;
39994;SDS011;25686;51.908;10.418;2023-06-22T07:03:33;19.77;;;12.57;;
39994;SDS011;25686;51.908;10.418;2023-06-22T07:05:34;17.48;;;13.00;;
39994;SDS011;25686;51.908;10.418;2023-06-22T07:07:35;20.77;;;13.27;;
39994;SDS011;25686;51.908;10.418;2023-06-22T07:09:37;20.38;;;12.45;;
39994;SDS011;25686;51.908;10.418;2023-06-22T07:11:37;17.02;;;12.18;;
39994;SDS011;25686;51.908;10.418;2023-06-22T07:13:38;23.20;;;12.40;;
39994;SDS011;25686;51.908;10.418;2023-06-22T07:15:39;15.90;;;11.90;;
39994;SDS011;25686;51.908;10.418;2023-06-22T07:17:40;17.02;;;12.80;;
39994;SDS011;25686;51.908;10.418;2023-06-22T07:19:41;17.75;;;12.25;;
39994;SDS011;25686;51.908;10.418;2023-06-22T07:21:43;17.40;;;11.93;;
39994;SDS011;25686;51.908;10.418;2023-06-22T07:23:44;17.35;;;12.27;;
39994;SDS011;25686;51.908;10.418;2023-06-22T07:25:45;14.65;;;11.70;;
39994;SDS011;25686;51.908;10.418;2023-06-22T07:27:56;17.48;;;12.27;;
39994;SDS011;25686;51.908;10.418;2023-06-22T07:29:57;19.30;;;11.65;;
39994;SDS011;25686;51.908;10.418;2023-06-22T07:31:58;15.60;;;10.95;;
39994;SDS011;25686;51.908;10.418;2023-06-22T07:34:00;13.82;;;12.38;;
39994;SDS011;25686;51.908;10.418;2023-06-22T07:36:02;14.82;;;11.70;;
39994;SDS011;25686;51.908;10.418;2023-06-22T07:38:07;14.15;;;11.32;;
39994;SDS011;25686;51.908;10.418;2023-06-22T07:40:09;13.65;;;11.43;;
39994;SDS011;25686;51.908;10.418;2023-06-22T07:42:10;18.63;;;12.30;;
39994;SDS011;25686;51.908;10.418;2023-06-22T07:44:11;15.82;;;12.00;;
39994;SDS011;25686;51.908;10.418;2023-06-22T07:46:12;18.25;;;12.63;;
39994;SDS011;25686;51.908;10.418;2023-06-22T07:48:13;17.58;;;13.27;;
39994;SDS011;25686;51.908;10.418;2023-06-22T07:50:14;17.90;;;13.25;;
39994;SDS011;25686;51.908;10.418;2023-06-22T07:52:15;18.27;;;14.30;;
39994;SDS011;25686;51.908;10.418;2023-06-22T07:54:16;19.95;;;13.32;;
39994;SDS011;25686;51.908;10.418;2023-06-22T07:56:17;21.38;;;13.15;;
39994;SDS011;25686;51.908;10.418;2023-06-22T07:58:21;21.08;;;13.77;;
39994;SDS011;25686;51.908;10.418;2023-06-22T08:00:22;15.60;;;12.18;;
39994;SDS011;25686;51.908;10.418;2023-06-22T08:02:23;21.15;;;12.52;;
39994;SDS011;25686;51.908;10.418;2023-06-22T08:04:24;16.17;;;12.98;;
39994;SDS011;25686;51.908;10.418;2023-06-22T08:06:28;20.02;;;12.75;;
39994;SDS011;25686;51.908;10.418;2023-06-22T08:08:30;17.55;;;12.52;;
39994;SDS011;25686;51.908;10.418;2023-06-22T08:10:31;16.92;;;11.55;;
39994;SDS011;25686;51.908;10.418;2023-06-22T08:12:32;19.58;;;13.00;;
39994;SDS011;25686;51.908;10.418;2023-06-22T08:14:33;16.50;;;12.10;;
39994;SDS011;25686;51.908;10.418;2023-06-22T08:16:36;20.50;;;11.77;;
39994;SDS011;25686;51.908;10.418;2023-06-22T08:18:37;18.58;;;14.10;;
39994;SDS011;25686;51.908;10.418;2023-06-22T08:20:38;21.23;;;14.13;;
39994;SDS011;25686;51.908;10.418;2023-06-22T08:22:39;19.42;;;13.75;;
39994;SDS011;25686;51.908;10.418;2023-06-22T08:24:40;22.00;;;14.05;;
39994;SDS011;25686;51.908;10.418;2023-06-22T08:26:41;21.55;;;14.90;;
39994;SDS011;25686;51.908;10.418;2023-06-22T08:28:42;21.70;;;14.18;;
39994;SDS011;25686;51.908;10.418;2023-06-22T08:30:43;20.55;;;14.75;;
39994;SDS011;25686;51.908;10.418;2023-06-22T08:32:44;17.92;;;13.25;;
39994;SDS011;25686;51.908;10.418;2023-06-22T08:34:45;19.00;;;13.75;;
39994;SDS011;25686;51.908;10.418;2023-06-22T08:36:47;19.88;;;14.90;;
39994;SDS011;25686;51.908;10.418;2023-06-22T08:38:52;24.80;;;16.83;;
39994;SDS011;25686;51.908;10.418;2023-06-22T08:40:53;19.88;;;17.75;;
39994;SDS011;25686;51.908;10.418;2023-06-22T08:42:54;21.10;;;16.75;;
39994;SDS011;25686;51.908;10.418;2023-06-22T08:44:55;24.38;;;17.67;;
39994;SDS011;25686;51.908;10.418;2023-06-22T08:46:57;22.20;;;17.55;;
39994;SDS011;25686;51.908;10.418;2023-06-22T08:48:58;19.92;;;16.38;;
39994;SDS011;25686;51.908;10.418;2023-06-22T08:50:59;21.85;;;15.73;;
39994;SDS011;25686;51.908;10.418;2023-06-22T08:53:00;19.73;;;16.50;;
39994;SDS011;25686;51.908;10.418;2023-06-22T08:55:01;23.70;;;18.08;;
39994;SDS011;25686;51.908;10.418;2023-06-22T08:57:03;19.63;;;15.55;;
39994;SDS011;25686;51.908;10.418;2023-06-22T08:59:04;21.70;;;16.65;;
39994;SDS011;25686;51.908;10.418;2023-06-22T09:01:07;23.48;;;17.30;;
39994;SDS011;25686;51.908;10.418;2023-06-22T09:03:08;24.65;;;17.20;;
39994;SDS011;25686;51.908;10.418;2023-06-22T09:05:09;22.90;;;17.10;;
39994;SDS011;25686;51.908;10.418;2023-06-22T09:07:10;26.05;;;17.80;;
39994;SDS011;25686;51.908;10.418;2023-06-22T09:09:12;21.63;;;18.33;;
39994;SDS011;25686;51.908;10.418;2023-06-22T09:11:14;21.50;;;18.05;;
39994;SDS011;25686;51.908;10.418;2023-06-22T09:13:15;22.35;;;18.45;;
39994;SDS011;25686;51.908;10.418;2023-06-22T09:15:16;23.95;;;19.20;;
39994;SDS011;25686;51.908;10.418;2023-06-22T09:17:17;23.23;;;19.08;;
39994;SDS011;25686;51.908;10.418;2023-06-22T09:19:18;23.48;;;18.77;;
39994;SDS011;25686;51.908;10.418;2023-06-22T09:21:19;24.75;;;18.83;;
39994;SDS011;25686;51.908;10.418;2023-06-22T09:23:20;21.52;;;18.55;;
39994;SDS011;25686;51.908;10.418;2023-06-22T09:25:21;28.25;;;20.85;;
39994;SDS011;25686;51.908;10.418;2023-06-22T09:27:22;27.42;;;19.48;;
39994;SDS011;25686;51.908;10.418;2023-06-22T09:29:23;28.80;;;21.95;;
39994;SDS011;25686;51.908;10.418;2023-06-22T09:31:24;27.02;;;20.15;;
39994;SDS011;25686;51.908;10.418;2023-06-22T09:33:25;28.00;;;19.17;;
39994;SDS011;25686;51.908;10.418;2023-06-22T09:35:26;20.48;;;16.77;;
39994;SDS011;25686;51.908;10.418;2023-06-22T09:37:27;19.95;;;16.88;;
39994;SDS011;25686;51.908;10.418;2023-06-22T09:39:28;20.92;;;15.50;;
39994;SDS011;25686;51.908;10.418;2023-06-22T09:41:29;19.88;;;16.80;;
39994;SDS011;25686;51.908;10.418;2023-06-22T09:43:31;20.83;;;16.70;;
39994;SDS011;25686;51.908;10.418;2023-06-22T09:45:34;19.55;;;16.73;;
39994;SDS011;25686;51.908;10.418;2023-06-22T09:47:36;20.73;;;17.92;;
39994;SDS011;25686;51.908;10.418;2023-06-22T09:49:37;20.45;;;15.95;;
39994;SDS011;25686;51.908;10.418;2023-06-22T09:51:38;23.63;;;17.13;;
39994;SDS011;25686;51.908;10.418;2023-06-22T09:53:39;17.50;;;15.70;;
39994;SDS011;25686;51.908;10.418;2023-06-22T09:55:40;17.45;;;15.63;;
39994;SDS011;25686;51.908;10.418;2023-06-22T09:57:41;20.20;;;15.27;;
39994;SDS011;25686;51.908;10.418;2023-06-22T09:59:42;19.25;;;15.75;;
39994;SDS011;25686;51.908;10.418;2023-06-22T10:01:43;19.55;;;17.58;;
39994;SDS011;25686;51.908;10.418;2023-06-22T10:03:44;18.88;;;16.58;;
39994;SDS011;25686;51.908;10.418;2023-06-22T10:05:45;21.67;;;16.13;;
39994;SDS011;25686;51.908;10.418;2023-06-22T10:07:46;20.02;;;16.27;;
39994;SDS011;25686;51.908;10.418;2023-06-22T10:09:46;20.83;;;17.52;;
39994;SDS011;25686;51.908;10.418;2023-06-22T10:11:47;22.08;;;17.80;;
39994;SDS011;25686;51.908;10.418;2023-06-22T10:13:48;20.17;;;17.13;;
39994;SDS011;25686;51.908;10.418;2023-06-22T10:15:49;22.10;;;19.75;;
39994;SDS011;25686;51.908;10.418;2023-06-22T10:17:52;22.15;;;19.80;;
39994;SDS011;25686;51.908;10.418;2023-06-22T10:19:53;21.25;;;18.23;;
39994;SDS011;25686;51.908;10.418;2023-06-22T10:21:53;26.35;;;19.65;;
39994;SDS011;25686;51.908;10.418;2023-06-22T10:23:55;23.95;;;21.08;;
39994;SDS011;25686;51.908;10.418;2023-06-22T10:25:56;22.50;;;19.80;;
39994;SDS011;25686;51.908;10.418;2023-06-22T10:27:58;22.08;;;19.75;;
39994;SDS011;25686;51.908;10.418;2023-06-22T10:29:59;22.88;;;20.00;;
39994;SDS011;25686;51.908;10.418;2023-06-22T10:32:00;21.50;;;18.45;;
39994;SDS011;25686;51.908;10.418;2023-06-22T10:34:00;22.02;;;18.55;;
39994;SDS011;25686;51.908;10.418;2023-06-22T10:36:02;21.40;;;18.00;;
39994;SDS011;25686;51.908;10.418;2023-06-22T10:38:03;26.17;;;17.45;;
39994;SDS011;25686;51.908;10.418;2023-06-22T10:40:04;26.67;;;19.15;;
39994;SDS011;25686;51.908;10.418;2023-06-22T10:42:05;18.60;;;16.15;;
39994;SDS011;25686;51.908;10.418;2023-06-22T10:44:06;19.48;;;17.05;;
39994;SDS011;25686;51.908;10.418;2023-06-22T10:46:07;17.23;;;15.40;;
39994;SDS011;25686;51.908;10.418;2023-06-22T10:48:08;17.25;;;13.95;;
39994;SDS011;25686;51.908;10.418;2023-06-22T10:50:09;13.93;;;12.35;;
39994;SDS011;25686;51.908;10.418;2023-06-22T10:52:10;16.10;;;13.65;;
39994;SDS011;25686;51.908;10.418;2023-06-22T10:54:11;14.60;;;13.10;;
39994;SDS011;25686;51.908;10.418;2023-06-22T10:56:13;14.65;;;13.15;;
39994;SDS011;25686;51.908;10.418;2023-06-22T10:58:14;14.77;;;12.68;;
39994;SDS011;25686;51.908;10.418;2023-06-22T11:00:15;14.60;;;12.18;;
39994;SDS011;25686;51.908;10.418;2023-06-22T11:02:16;18.27;;;14.18;;
39994;SDS011;25686;51.908;10.418;2023-06-22T11:04:17;15.23;;;12.77;;
39994;SDS011;25686;51.908;10.418;2023-06-22T11:06:18;15.80;;;14.10;;
39994;SDS011;25686;51.908;10.418;2023-06-22T11:08:19;14.60;;;12.90;;
39994;SDS011;25686;51.908;10.418;2023-06-22T11:10:20;13.85;;;12.35;;
39994;SDS011;25686;51.908;10.418;2023-06-22T11:12:21;18.30;;;14.23;;
39994;SDS011;25686;51.908;10.418;2023-06-22T11:14:22;16.10;;;14.45;;
39994;SDS011;25686;51.908;10.418;2023-06-22T11:16:23;17.70;;;13.52;;
39994;SDS011;25686;51.908;10.418;2023-06-22T11:18:24;13.77;;;12.38;;
39994;SDS011;25686;51.908;10.418;2023-06-22T11:20:25;15.95;;;14.30;;
39994;SDS011;25686;51.908;10.418;2023-06-22T11:22:26;15.00;;;13.15;;
39994;SDS011;25686;51.908;10.418;2023-06-22T11:24:27;16.63;;;13.68;;
39994;SDS011;25686;51.908;10.418;2023-06-22T11:26:28;17.13;;;13.02;;
39994;SDS011;25686;51.908;10.418;2023-06-22T11:28:29;16.65;;;12.88;;
39994;SDS011;25686;51.908;10.418;2023-06-22T11:30:30;16.65;;;13.15;;
39994;SDS011;25686;51.908;10.418;2023-06-22T11:32:31;16.20;;;14.23;;
39994;SDS011;25686;51.908;10.418;2023-06-22T11:34:32;15.43;;;13.77;;
39994;SDS011;25686;51.908;10.418;2023-06-22T11:36:33;15.40;;;13.13;;
39994;SDS011;25686;51.908;10.418;2023-06-22T11:38:35;14.75;;;13.10;;
39994;SDS011;25686;51.908;10.418;2023-06-22T11:40:38;16.67;;;13.55;;
39994;SDS011;25686;51.908;10.418;2023-06-22T11:42:39;15.05;;;12.68;;
39994;SDS011;25686;51.908;10.418;2023-06-22T11:44:41;14.40;;;12.23;;
39994;SDS011;25686;51.908;10.418;2023-06-22T11:46:43;13.65;;;11.85;;
39994;SDS011;25686;51.908;10.418;2023-06-22T11:48:44;12.63;;;11.32;;